Time;durP1;ratioP1;P1;durP2;ratioP2;P2;SDS_P1;SDS_P2;PMS_P1;PMS_P2;Temp;Humidity;BMP_temperature;BMP_pressure;BME280_temperature;BME280_humidity;BME280_pressure;Samples;Min_cycle;Max_cycle;Signal;HPM_P1;HPM_P2
2023/08/15 00:01:23;;;;;;;16.02;11.45;;;;;;;;;;5051643;28;20107;-74
2023/08/15 00:03:50;;;;;;;16.42;11.48;;;;;;;;;;5051867;28;20055;-75
2023/08/15 00:06:18;;;;;;;16.42;12.02;;;;;;;;;;5052598;28;20025;-75
2023/08/15 00:08:45;;;;;;;17.17;11.80;;;;;;;;;;5052871;28;20102;-75
2023/08/15 00:11:11;;;;;;;15.18;11.05;;;;;;;;;;5052611;28;20371;-75
2023/08/15 00:13:37;;;;;;;14.20;11.23;;;;;;;;;;5052205;28;20032;-74
2023/08/15 00:16:03;;;;;;;14.30;10.75;;;;;;;;;;5052787;28;20104;-74
2023/08/15 00:18:35;;;;;;;12.48;9.13;;;;;;;;;;5052459;28;20017;-74
2023/08/15 00:21:01;;;;;;;12.05;10.75;;;;;;;;;;5032469;28;20576;-75
2023/08/15 00:23:27;;;;;;;13.30;9.68;;;;;;;;;;5032461;28;20131;-75
2023/08/15 00:25:53;;;;;;;13.80;11.07;;;;;;;;;;5032242;28;20052;-74
2023/08/15 00:28:19;;;;;;;11.15;9.95;;;;;;;;;;5033286;28;20036;-75
2023/08/15 00:30:45;;;;;;;11.90;10.57;;;;;;;;;;5051996;28;20083;-74
2023/08/15 00:33:11;;;;;;;13.32;9.80;;;;;;;;;;5051765;28;20053;-74
2023/08/15 00:35:37;;;;;;;12.07;9.63;;;;;;;;;;5052205;28;20055;-74
2023/08/15 00:38:03;;;;;;;12.10;10.05;;;;;;;;;;5052081;28;20453;-74
2023/08/15 00:40:29;;;;;;;12.13;9.98;;;;;;;;;;5051791;28;20056;-74
2023/08/15 00:42:55;;;;;;;13.52;9.52;;;;;;;;;;5051880;28;20051;-74
2023/08/15 00:45:28;;;;;;;15.30;10.13;;;;;;;;;;5051767;28;20613;-75
2023/08/15 00:47:54;;;;;;;12.68;9.48;;;;;;;;;;5051947;28;20040;-75
2023/08/15 00:50:21;;;;;;;14.77;10.80;;;;;;;;;;5052012;28;20480;-74
2023/08/15 00:52:48;;;;;;;13.30;10.35;;;;;;;;;;5051885;28;20119;-74
2023/08/15 00:55:15;;;;;;;13.23;10.45;;;;;;;;;;5051562;28;20044;-74
2023/08/15 00:57:41;;;;;;;16.95;10.73;;;;;;;;;;5051568;28;20017;-74
2023/08/15 01:00:07;;;;;;;14.40;10.32;;;;;;;;;;5050449;28;20435;-75
2023/08/15 01:02:34;;;;;;;13.45;10.30;;;;;;;;;;5051691;28;20021;-74
2023/08/15 01:05:00;;;;;;;15.05;10.45;;;;;;;;;;5051851;28;20051;-74
2023/08/15 01:07:26;;;;;;;12.38;9.40;;;;;;;;;;5042099;28;20022;-74
2023/08/15 01:09:52;;;;;;;12.20;10.13;;;;;;;;;;5031067;28;20126;-74
2023/08/15 01:12:23;;;;;;;14.60;10.73;;;;;;;;;;5031536;28;20083;-75
2023/08/15 01:15:04;;;;;;;14.68;10.00;;;;;;;;;;5046962;28;20025;-75
2023/08/15 01:17:45;;;;;;;13.27;11.18;;;;;;;;;;5051599;28;20047;-74
2023/08/15 01:20:13;;;;;;;15.25;10.27;;;;;;;;;;5051459;28;20104;-75
2023/08/15 01:22:43;;;;;;;13.48;10.25;;;;;;;;;;5051475;28;20532;-74
2023/08/15 01:25:09;;;;;;;14.68;11.05;;;;;;;;;;5051626;28;20675;-74
2023/08/15 01:27:37;;;;;;;14.73;11.25;;;;;;;;;;5051441;28;20396;-75
2023/08/15 01:30:03;;;;;;;13.27;10.57;;;;;;;;;;5051077;28;20604;-75
2023/08/15 01:32:48;;;;;;;15.15;10.73;;;;;;;;;;5050487;28;20053;-75
2023/08/15 01:35:20;;;;;;;15.77;11.45;;;;;;;;;;5051337;28;20061;-74
2023/08/15 01:37:48;;;;;;;15.48;10.93;;;;;;;;;;5050861;28;20059;-74
2023/08/15 01:40:16;;;;;;;13.68;11.50;;;;;;;;;;5051210;28;20057;-74
2023/08/15 01:42:42;;;;;;;14.60;11.75;;;;;;;;;;5050208;28;20392;-74
2023/08/15 01:45:09;;;;;;;16.70;11.60;;;;;;;;;;5051236;28;20033;-74
2023/08/15 01:47:35;;;;;;;14.27;10.88;;;;;;;;;;5051440;28;20131;-74
2023/08/15 01:50:01;;;;;;;14.40;9.98;;;;;;;;;;5051120;28;20047;-74
2023/08/15 01:52:27;;;;;;;15.73;11.00;;;;;;;;;;5051254;28;20345;-74
2023/08/15 01:54:53;;;;;;;17.90;12.05;;;;;;;;;;5051056;28;20097;-74
2023/08/15 01:57:19;;;;;;;16.63;12.10;;;;;;;;;;5050911;28;20565;-74
2023/08/15 01:59:45;;;;;;;16.33;11.85;;;;;;;;;;5051129;28;20117;-74
2023/08/15 02:02:11;;;;;;;12.38;9.63;;;;;;;;;;5051019;28;20067;-74
2023/08/15 02:04:37;;;;;;;12.70;10.02;;;;;;;;;;5050858;28;20022;-75
2023/08/15 02:07:04;;;;;;;15.32;10.50;;;;;;;;;;5050869;28;20597;-75
2023/08/15 02:09:30;;;;;;;13.43;9.30;;;;;;;;;;5051081;28;20029;-75
2023/08/15 02:11:56;;;;;;;14.93;10.68;;;;;;;;;;5045712;28;20026;-74
2023/08/15 02:14:22;;;;;;;13.90;10.70;;;;;;;;;;5030893;28;20080;-74
2023/08/15 02:16:48;;;;;;;15.27;11.02;;;;;;;;;;5048389;28;20021;-74
2023/08/15 02:19:14;;;;;;;11.60;9.07;;;;;;;;;;5050436;28;20029;-75
2023/08/15 02:21:40;;;;;;;15.40;10.25;;;;;;;;;;5050663;28;20090;-74
2023/08/15 02:24:06;;;;;;;24.08;10.80;;;;;;;;;;5054244;28;20087;-74
2023/08/15 02:26:35;;;;;;;21.13;10.90;;;;;;;;;;5054345;28;20055;-75
2023/08/15 02:29:02;;;;;;;19.20;10.57;;;;;;;;;;5054759;28;20021;-76
2023/08/15 02:31:29;;;;;;;20.20;11.48;;;;;;;;;;5054408;28;20539;-77
2023/08/15 02:33:55;;;;;;;15.25;11.20;;;;;;;;;;5054447;28;20029;-76
2023/08/15 02:36:21;;;;;;;17.55;12.10;;;;;;;;;;5054261;28;20029;-76
2023/08/15 02:38:47;;;;;;;20.60;13.32;;;;;;;;;;5054320;28;20021;-76
2023/08/15 02:41:13;;;;;;;23.73;13.60;;;;;;;;;;5054300;28;20040;-76
2023/08/15 02:43:39;;;;;;;21.52;12.57;;;;;;;;;;5055019;28;20031;-76
2023/08/15 02:46:05;;;;;;;22.30;13.48;;;;;;;;;;5054920;28;20025;-76
2023/08/15 02:48:31;;;;;;;18.50;12.88;;;;;;;;;;5054873;28;20431;-76
2023/08/15 02:50:57;;;;;;;21.70;13.20;;;;;;;;;;5054735;28;20021;-76
2023/08/15 02:53:23;;;;;;;17.45;12.55;;;;;;;;;;5054638;28;20029;-76
2023/08/15 02:55:50;;;;;;;19.08;10.98;;;;;;;;;;5054743;28;20108;-76
2023/08/15 02:58:16;;;;;;;17.83;11.63;;;;;;;;;;5054647;28;20457;-76
2023/08/15 03:00:43;;;;;;;20.88;10.88;;;;;;;;;;5054524;28;20029;-76
2023/08/15 03:03:09;;;;;;;19.27;10.48;;;;;;;;;;5054708;28;20075;-76
2023/08/15 03:05:37;;;;;;;12.40;10.05;;;;;;;;;;5054518;28;20472;-76
2023/08/15 03:08:03;;;;;;;14.38;9.35;;;;;;;;;;5054416;28;20387;-76
2023/08/15 03:10:32;;;;;;;19.75;9.40;;;;;;;;;;5054545;28;20036;-76
2023/08/15 03:12:58;;;;;;;18.00;9.50;;;;;;;;;;5054597;28;20021;-76
2023/08/15 03:15:25;;;;;;;16.02;8.98;;;;;;;;;;5054270;28;20029;-76
2023/08/15 03:17:51;;;;;;;13.07;7.82;;;;;;;;;;5054398;28;20420;-76
2023/08/15 03:20:17;;;;;;;15.02;8.48;;;;;;;;;;5054658;28;20059;-76
2023/08/15 03:22:43;;;;;;;11.77;8.10;;;;;;;;;;5054200;28;20082;-76
2023/08/15 03:25:10;;;;;;;11.82;7.93;;;;;;;;;;5054177;28;20134;-77
2023/08/15 03:27:36;;;;;;;13.73;7.82;;;;;;;;;;5054061;28;20017;-76
2023/08/15 03:30:04;;;;;;;12.40;7.72;;;;;;;;;;5054193;28;20023;-77
2023/08/15 03:32:30;;;;;;;10.75;6.60;;;;;;;;;;5053644;28;20049;-76
2023/08/15 03:34:56;;;;;;;11.68;7.07;;;;;;;;;;5053578;28;20032;-76
2023/08/15 03:37:22;;;;;;;9.98;6.53;;;;;;;;;;5054424;28;20048;-76
2023/08/15 03:39:48;;;;;;;10.05;5.50;;;;;;;;;;5053903;28;20403;-77
2023/08/15 03:42:14;;;;;;;10.95;5.72;;;;;;;;;;5053814;28;20087;-77
2023/08/15 03:44:40;;;;;;;12.50;5.60;;;;;;;;;;5053865;28;20021;-76
2023/08/15 03:47:06;;;;;;;8.05;4.90;;;;;;;;;;5053716;28;20048;-77
2023/08/15 03:49:32;;;;;;;11.35;5.25;;;;;;;;;;5053671;28;20031;-76
2023/08/15 03:51:58;;;;;;;11.63;5.72;;;;;;;;;;5053727;28;20111;-76
2023/08/15 03:54:24;;;;;;;10.50;6.15;;;;;;;;;;5053733;28;20424;-77
2023/08/15 03:56:50;;;;;;;7.57;5.55;;;;;;;;;;5053463;28;20025;-77
2023/08/15 03:59:16;;;;;;;9.90;5.97;;;;;;;;;;5053517;28;20048;-77
2023/08/15 04:01:42;;;;;;;10.55;5.85;;;;;;;;;;5053305;28;20108;-76
2023/08/15 04:04:08;;;;;;;12.63;6.43;;;;;;;;;;5052311;28;20094;-76
2023/08/15 04:06:34;;;;;;;10.13;5.50;;;;;;;;;;5051865;28;20075;-76
2023/08/15 04:09:00;;;;;;;8.38;5.60;;;;;;;;;;5053780;28;20029;-76
2023/08/15 04:11:26;;;;;;;8.00;5.10;;;;;;;;;;5053169;28;20029;-76
2023/08/15 04:13:52;;;;;;;10.90;5.75;;;;;;;;;;5053145;28;20383;-77
2023/08/15 04:16:18;;;;;;;13.20;4.97;;;;;;;;;;5053306;28;20111;-77
2023/08/15 04:18:44;;;;;;;10.90;4.93;;;;;;;;;;5053148;28;20482;-77
2023/08/15 04:21:11;;;;;;;13.93;5.22;;;;;;;;;;5052868;28;20025;-76
2023/08/15 04:23:37;;;;;;;10.55;4.68;;;;;;;;;;5052798;28;20032;-77
2023/08/15 04:26:03;;;;;;;12.35;5.57;;;;;;;;;;5052809;28;20040;-76
2023/08/15 04:28:29;;;;;;;9.73;4.20;;;;;;;;;;5053065;28;20087;-76
2023/08/15 04:30:55;;;;;;;8.32;4.55;;;;;;;;;;5053043;28;20036;-77
2023/08/15 04:33:21;;;;;;;12.35;4.55;;;;;;;;;;5052612;28;20045;-77
2023/08/15 04:35:47;;;;;;;11.43;5.10;;;;;;;;;;5053066;28;20017;-76
2023/08/15 04:38:14;;;;;;;10.93;4.57;;;;;;;;;;5052785;28;20052;-77
2023/08/15 04:40:40;;;;;;;13.48;4.43;;;;;;;;;;5053001;28;20039;-76
2023/08/15 04:43:09;;;;;;;10.93;4.75;;;;;;;;;;5052348;28;20095;-76
2023/08/15 04:45:40;;;;;;;14.70;4.78;;;;;;;;;;5051710;28;20119;-77
2023/08/15 04:48:06;;;;;;;16.75;4.50;;;;;;;;;;5052861;28;20022;-76
2023/08/15 04:50:32;;;;;;;12.02;4.97;;;;;;;;;;5052700;28;20083;-75
2023/08/15 04:52:58;;;;;;;13.15;4.68;;;;;;;;;;5052491;28;20029;-76
2023/08/15 04:55:24;;;;;;;10.23;4.75;;;;;;;;;;5052611;28;20033;-76
2023/08/15 04:57:50;;;;;;;12.32;5.13;;;;;;;;;;5052532;28;20029;-76
2023/08/15 05:00:19;;;;;;;16.95;5.20;;;;;;;;;;5052205;28;20032;-76
2023/08/15 05:02:45;;;;;;;12.82;5.32;;;;;;;;;;5052644;28;20036;-76
2023/08/15 05:05:11;;;;;;;10.35;4.63;;;;;;;;;;5052293;28;20530;-76
2023/08/15 05:07:37;;;;;;;12.18;4.70;;;;;;;;;;5052215;28;21787;-77
2023/08/15 05:10:03;;;;;;;13.55;5.05;;;;;;;;;;5052167;28;20487;-77
2023/08/15 05:12:29;;;;;;;12.60;4.63;;;;;;;;;;5052209;28;20032;-77
2023/08/15 05:14:55;;;;;;;13.13;4.63;;;;;;;;;;5052111;28;20033;-77
2023/08/15 05:17:21;;;;;;;11.88;4.68;;;;;;;;;;5052169;28;20040;-77
2023/08/15 05:19:47;;;;;;;13.85;4.50;;;;;;;;;;5052155;28;20025;-77
2023/08/15 05:22:13;;;;;;;11.25;4.45;;;;;;;;;;5052016;28;20055;-76
2023/08/15 05:24:39;;;;;;;10.50;4.47;;;;;;;;;;5052077;28;20029;-77
2023/08/15 05:27:05;;;;;;;9.85;4.45;;;;;;;;;;5052048;28;20108;-77
2023/08/15 05:29:31;;;;;;;10.70;4.45;;;;;;;;;;5052179;28;20071;-77
2023/08/15 05:31:57;;;;;;;16.70;4.63;;;;;;;;;;5051942;28;20533;-77
2023/08/15 05:34:23;;;;;;;15.15;4.45;;;;;;;;;;5052268;28;20147;-76
2023/08/15 05:36:50;;;;;;;9.10;4.00;;;;;;;;;;5051987;28;20066;-77
2023/08/15 05:39:16;;;;;;;9.88;4.35;;;;;;;;;;5052164;28;20029;-77
2023/08/15 05:41:42;;;;;;;8.98;4.38;;;;;;;;;;5052061;28;20541;-77
2023/08/15 05:44:08;;;;;;;15.05;5.75;;;;;;;;;;5052012;28;20021;-77
2023/08/15 05:46:34;;;;;;;13.02;5.63;;;;;;;;;;5051879;28;20541;-77
2023/08/15 05:49:00;;;;;;;12.32;5.65;;;;;;;;;;5052296;28;20021;-77
2023/08/15 05:51:26;;;;;;;10.23;4.80;;;;;;;;;;5052062;28;20052;-77
2023/08/15 05:53:52;;;;;;;11.95;4.45;;;;;;;;;;5051801;28;20025;-77
2023/08/15 05:56:18;;;;;;;9.93;3.47;;;;;;;;;;5052558;28;20440;-77
2023/08/15 05:58:44;;;;;;;8.25;2.97;;;;;;;;;;5055904;28;20100;-77
2023/08/15 06:01:10;;;;;;;6.15;2.83;;;;;;;;;;5055857;28;20026;-77
2023/08/15 06:03:36;;;;;;;7.07;2.70;;;;;;;;;;5055707;28;20025;-77
2023/08/15 06:06:02;;;;;;;6.22;2.80;;;;;;;;;;5055673;28;20112;-76
2023/08/15 06:08:28;;;;;;;8.30;2.88;;;;;;;;;;5055917;28;20021;-77
2023/08/15 06:10:54;;;;;;;5.97;2.83;;;;;;;;;;5055760;28;20356;-77
2023/08/15 06:13:20;;;;;;;5.68;2.58;;;;;;;;;;5055610;28;20029;-77
2023/08/15 06:15:46;;;;;;;8.30;2.83;;;;;;;;;;5055466;28;20032;-77
2023/08/15 06:18:12;;;;;;;7.53;2.75;;;;;;;;;;5055795;28;20025;-77
2023/08/15 06:20:39;;;;;;;9.35;2.40;;;;;;;;;;5055662;28;20155;-77
2023/08/15 06:23:05;;;;;;;8.20;2.80;;;;;;;;;;5055355;28;20076;-77
2023/08/15 06:25:31;;;;;;;6.72;2.30;;;;;;;;;;5055357;28;20025;-77
2023/08/15 06:27:57;;;;;;;6.22;2.58;;;;;;;;;;5055505;28;20051;-77
2023/08/15 06:30:23;;;;;;;4.47;2.58;;;;;;;;;;5055255;28;20029;-77
2023/08/15 06:32:49;;;;;;;7.68;2.78;;;;;;;;;;5053880;28;20099;-77
2023/08/15 06:35:15;;;;;;;9.98;2.60;;;;;;;;;;5055014;28;20361;-77
2023/08/15 06:37:41;;;;;;;6.18;2.38;;;;;;;;;;5055057;28;20021;-77
2023/08/15 06:40:08;;;;;;;7.65;2.20;;;;;;;;;;5055018;28;20358;-77
2023/08/15 06:42:34;;;;;;;6.13;1.88;;;;;;;;;;5054984;28;20013;-77
2023/08/15 06:45:16;;;;;;;6.07;1.88;;;;;;;;;;5054803;28;20079;-77
2023/08/15 06:47:42;;;;;;;5.97;1.67;;;;;;;;;;5054859;28;20048;-77
2023/08/15 06:50:09;;;;;;;5.70;1.58;;;;;;;;;;5054878;28;20071;-77
2023/08/15 06:52:35;;;;;;;4.78;1.75;;;;;;;;;;5054695;28;20061;-77
2023/08/15 06:55:04;;;;;;;3.63;1.70;;;;;;;;;;5053216;28;20492;-77
2023/08/15 06:57:31;;;;;;;4.18;1.45;;;;;;;;;;5054659;28;20063;-78
2023/08/15 06:59:57;;;;;;;4.20;1.70;;;;;;;;;;5054539;28;20024;-77
2023/08/15 07:02:23;;;;;;;4.55;1.60;;;;;;;;;;5054580;28;20403;-77
2023/08/15 07:04:50;;;;;;;5.57;1.50;;;;;;;;;;5054259;28;20025;-77
2023/08/15 07:07:17;;;;;;;3.67;1.55;;;;;;;;;;5054779;28;20021;-77
2023/08/15 07:09:43;;;;;;;5.45;1.70;;;;;;;;;;5053893;28;20471;-77
2023/08/15 07:12:10;;;;;;;5.88;1.63;;;;;;;;;;5054669;28;20100;-77
2023/08/15 07:14:36;;;;;;;4.70;1.90;;;;;;;;;;5054829;28;20459;-77
2023/08/15 07:17:02;;;;;;;4.78;1.80;;;;;;;;;;5054157;28;20468;-77
2023/08/15 07:19:28;;;;;;;5.75;1.85;;;;;;;;;;5054746;28;20044;-77
2023/08/15 07:21:54;;;;;;;6.97;2.03;;;;;;;;;;5054388;28;20060;-77
2023/08/15 07:24:21;;;;;;;5.03;2.03;;;;;;;;;;5055644;28;20053;-77
2023/08/15 07:26:47;;;;;;;6.97;1.80;;;;;;;;;;5054285;28;20029;-77
2023/08/15 07:29:13;;;;;;;7.72;2.05;;;;;;;;;;5053948;28;20025;-77
2023/08/15 07:31:39;;;;;;;4.70;1.60;;;;;;;;;;5053718;28;20155;-78
2023/08/15 07:34:05;;;;;;;5.38;1.40;;;;;;;;;;5054232;28;20112;-77
2023/08/15 07:36:31;;;;;;;5.07;1.30;;;;;;;;;;5054700;28;20468;-77
2023/08/15 07:38:57;;;;;;;3.42;1.33;;;;;;;;;;5049385;28;20024;-77
2023/08/15 07:41:23;;;;;;;5.80;1.40;;;;;;;;;;5042248;28;20026;-77
2023/08/15 07:43:49;;;;;;;5.18;1.80;;;;;;;;;;5053426;28;20025;-78
2023/08/15 07:46:15;;;;;;;6.07;1.55;;;;;;;;;;5054182;28;20087;-77
2023/08/15 07:48:42;;;;;;;6.00;1.60;;;;;;;;;;5054365;28;20431;-78
2023/08/15 07:51:08;;;;;;;4.63;1.80;;;;;;;;;;5054638;28;20116;-78
2023/08/15 07:53:34;;;;;;;4.68;1.73;;;;;;;;;;5054856;28;20025;-78
2023/08/15 07:56:01;;;;;;;3.85;1.50;;;;;;;;;;5053894;28;20041;-77
2023/08/15 07:58:27;;;;;;;4.90;1.52;;;;;;;;;;5052249;28;20028;-77
2023/08/15 08:00:53;;;;;;;3.25;1.38;;;;;;;;;;5053555;28;20021;-77
2023/08/15 08:03:19;;;;;;;5.78;1.50;;;;;;;;;;5053390;28;20107;-77
2023/08/15 08:05:45;;;;;;;3.30;1.33;;;;;;;;;;5053383;28;20605;-77
2023/08/15 08:08:13;;;;;;;2.50;1.17;;;;;;;;;;5053332;28;20594;-78
2023/08/15 08:10:39;;;;;;;2.63;1.40;;;;;;;;;;5053452;28;20017;-78
2023/08/15 08:13:06;;;;;;;4.38;1.55;;;;;;;;;;5040306;28;20071;-78
2023/08/15 08:15:32;;;;;;;5.20;1.63;;;;;;;;;;5053403;28;20063;-77
2023/08/15 08:17:59;;;;;;;5.40;1.77;;;;;;;;;;5053834;28;20021;-78
2023/08/15 08:20:26;;;;;;;2.92;1.23;;;;;;;;;;5053725;28;20431;-76
2023/08/15 08:22:52;;;;;;;4.20;1.40;;;;;;;;;;5053245;28;20053;-75
2023/08/15 08:25:19;;;;;;;3.92;1.55;;;;;;;;;;5053182;28;20037;-75
2023/08/15 08:27:46;;;;;;;6.78;1.95;;;;;;;;;;5052979;28;20029;-75
2023/08/15 08:30:21;;;;;;;4.05;1.83;;;;;;;;;;5053061;28;20109;-75
2023/08/15 08:32:48;;;;;;;5.18;1.52;;;;;;;;;;5032408;28;20041;-75
2023/08/15 08:35:17;;;;;;;4.03;1.58;;;;;;;;;;5032964;28;20021;-75
2023/08/15 08:37:43;;;;;;;;;;;;;;;;;;5033400;28;20032;-74
2023/08/15 08:40:11;;;;;;;4.28;1.90;;;;;;;;;;5032869;28;20024;-75
2023/08/15 08:42:38;;;;;;;8.90;2.13;;;;;;;;;;5033087;28;20018;-75
2023/08/15 08:45:04;;;;;;;101.03;8.32;;;;;;;;;;5032758;28;20086;-74
2023/08/15 08:47:31;;;;;;;5.43;1.60;;;;;;;;;;5032720;28;20021;-74
2023/08/15 08:49:58;;;;;;;46.47;3.70;;;;;;;;;;5043416;28;20515;-74
2023/08/15 08:52:25;;;;;;;4.38;1.77;;;;;;;;;;5052544;28;20025;-73
2023/08/15 08:54:51;;;;;;;5.15;1.40;;;;;;;;;;5052494;28;20460;-74
2023/08/15 08:57:18;;;;;;;4.68;1.40;;;;;;;;;;5052625;28;20021;-74
2023/08/15 08:59:45;;;;;;;4.80;1.45;;;;;;;;;;5052408;28;20021;-74
2023/08/15 09:02:22;;;;;;;4.63;1.63;;;;;;;;;;5052591;28;20529;-74
2023/08/15 09:04:48;;;;;;;3.70;1.50;;;;;;;;;;5052556;28;20408;-74
2023/08/15 09:07:17;;;;;;;5.90;2.15;;;;;;;;;;5052322;28;20104;-74
2023/08/15 09:09:43;;;;;;;5.18;1.75;;;;;;;;;;5052363;28;20029;-74
2023/08/15 09:12:09;;;;;;;4.82;1.80;;;;;;;;;;5052296;28;20017;-74
2023/08/15 09:14:41;;;;;;;5.63;1.80;;;;;;;;;;5052233;28;20028;-74
2023/08/15 09:17:11;;;;;;;5.47;1.52;;;;;;;;;;5052246;28;20025;-74
2023/08/15 09:19:40;;;;;;;5.43;1.85;;;;;;;;;;5052531;28;20067;-74
2023/08/15 09:22:06;;;;;;;4.53;1.83;;;;;;;;;;5052187;28;20029;-75
2023/08/15 09:24:32;;;;;;;5.20;1.60;;;;;;;;;;5051999;28;20013;-76
2023/08/15 09:27:05;;;;;;;5.05;1.90;;;;;;;;;;5052409;28;20083;-76
2023/08/15 09:29:34;;;;;;;3.20;1.67;;;;;;;;;;5053550;28;20017;-76
2023/08/15 09:32:00;;;;;;;5.55;1.88;;;;;;;;;;5053938;28;20053;-77
2023/08/15 09:34:26;;;;;;;7.07;2.67;;;;;;;;;;5059886;28;20056;-77
2023/08/15 09:36:52;;;;;;;3.17;1.75;;;;;;;;;;5059595;28;20104;-76
2023/08/15 09:39:18;;;;;;;3.00;1.80;;;;;;;;;;5059771;28;20038;-77
2023/08/15 09:41:48;;;;;;;4.10;1.73;;;;;;;;;;5059655;28;20021;-76
2023/08/15 09:44:29;;;;;;;4.15;2.05;;;;;;;;;;5060075;28;20020;-77
2023/08/15 09:46:55;;;;;;;5.35;1.98;;;;;;;;;;5059289;28;20037;-77
2023/08/15 09:49:22;;;;;;;4.35;1.90;;;;;;;;;;5060571;28;20368;-77
2023/08/15 09:51:48;;;;;;;4.50;1.88;;;;;;;;;;5058840;28;20024;-77
2023/08/15 09:54:16;;;;;;;5.03;1.75;;;;;;;;;;5060638;28;20028;-77
2023/08/15 09:56:43;;;;;;;5.82;2.28;;;;;;;;;;5058889;28;20120;-77
2023/08/15 09:59:09;;;;;;;5.35;2.00;;;;;;;;;;5060695;28;20033;-77
2023/08/15 10:01:38;;;;;;;3.72;2.00;;;;;;;;;;5060315;28;20024;-77
2023/08/15 10:04:10;;;;;;;5.22;2.20;;;;;;;;;;5040559;28;20112;-76
2023/08/15 10:06:36;;;;;;;5.03;2.00;;;;;;;;;;5038785;28;20537;-76
2023/08/15 10:09:03;;;;;;;4.50;2.10;;;;;;;;;;5038326;28;20025;-77
2023/08/15 10:11:31;;;;;;;5.53;1.92;;;;;;;;;;5037410;28;20082;-76
2023/08/15 10:13:57;;;;;;;5.00;1.90;;;;;;;;;;5046704;28;20108;-76
2023/08/15 10:16:24;;;;;;;3.63;1.85;;;;;;;;;;5058289;28;20296;-77
2023/08/15 10:18:54;;;;;;;3.20;1.80;;;;;;;;;;5058403;28;20094;-77
2023/08/15 10:21:20;;;;;;;3.55;1.80;;;;;;;;;;5058323;28;20434;-77
2023/08/15 10:23:46;;;;;;;3.90;2.08;;;;;;;;;;5058281;28;20037;-77
2023/08/15 10:26:13;;;;;;;2.75;1.67;;;;;;;;;;5058276;28;20025;-77
2023/08/15 10:28:41;;;;;;;4.80;1.73;;;;;;;;;;5058401;28;20029;-76
2023/08/15 10:31:08;;;;;;;5.50;1.73;;;;;;;;;;5058346;28;20412;-77
2023/08/15 10:33:37;;;;;;;3.63;1.70;;;;;;;;;;5057955;28;20045;-76
2023/08/15 10:36:02;;;;;;;3.92;1.60;;;;;;;;;;5058531;28;20258;-76
2023/08/15 10:38:37;;;;;;;3.58;1.70;;;;;;;;;;5058137;28;20104;-76
2023/08/15 10:41:04;;;;;;;4.55;1.75;;;;;;;;;;5058041;28;20017;-76
2023/08/15 10:43:32;;;;;;;4.70;1.80;;;;;;;;;;5055040;28;20033;-76
2023/08/15 10:46:00;;;;;;;4.43;1.50;;;;;;;;;;5054830;28;20044;-76
2023/08/15 10:48:43;;;;;;;3.63;1.65;;;;;;;;;;5054972;28;20040;-76
2023/08/15 10:51:18;;;;;;;2.05;1.35;;;;;;;;;;5055160;28;20029;-76
2023/08/15 10:53:51;;;;;;;3.22;1.50;;;;;;;;;;5054847;28;20079;-76
2023/08/15 10:56:19;;;;;;;5.68;1.30;;;;;;;;;;5054783;28;20029;-76
2023/08/15 10:58:46;;;;;;;3.63;1.50;;;;;;;;;;5054446;28;20376;-75
2023/08/15 11:01:16;;;;;;;1.77;0.93;;;;;;;;;;5054791;28;20112;-76
2023/08/15 11:03:43;;;;;;;2.50;1.00;;;;;;;;;;5054984;28;20025;-76
2023/08/15 11:06:13;;;;;;;2.10;1.13;;;;;;;;;;5054341;28;20055;-76
2023/08/15 11:08:43;;;;;;;3.28;1.65;;;;;;;;;;5054515;28;20053;-76
2023/08/15 11:11:09;;;;;;;3.47;1.27;;;;;;;;;;5054458;28;20048;-76
2023/08/15 11:13:39;;;;;;;4.38;1.95;;;;;;;;;;5054770;28;20021;-76
2023/08/15 11:16:06;;;;;;;4.50;1.48;;;;;;;;;;5054353;28;20033;-76
2023/08/15 11:18:32;;;;;;;3.13;1.50;;;;;;;;;;5054136;28;20473;-76
2023/08/15 11:21:00;;;;;;;4.40;1.58;;;;;;;;;;5053361;28;20063;-76
2023/08/15 11:23:28;;;;;;;3.58;1.60;;;;;;;;;;5053552;28;20012;-76
2023/08/15 11:25:54;;;;;;;3.05;1.63;;;;;;;;;;5053732;28;20029;-76
2023/08/15 11:28:20;;;;;;;3.88;1.83;;;;;;;;;;5054172;28;20028;-76
2023/08/15 11:30:46;;;;;;;5.25;1.73;;;;;;;;;;5054146;28;20040;-76
2023/08/15 11:33:16;;;;;;;3.47;1.90;;;;;;;;;;5053697;28;20049;-76
2023/08/15 11:35:42;;;;;;;4.72;1.98;;;;;;;;;;5053846;28;20032;-76
2023/08/15 11:38:11;;;;;;;4.70;2.08;;;;;;;;;;5053824;28;20033;-76
2023/08/15 11:40:37;;;;;;;2.55;1.58;;;;;;;;;;5054259;28;20066;-76
2023/08/15 11:43:03;;;;;;;4.07;2.47;;;;;;;;;;5033900;28;20036;-76
2023/08/15 11:45:31;;;;;;;6.20;2.50;;;;;;;;;;5033900;28;20044;-76
2023/08/15 11:47:59;;;;;;;8.03;2.70;;;;;;;;;;5034014;28;20427;-76
2023/08/15 11:50:26;;;;;;;4.60;2.00;;;;;;;;;;5033716;28;20251;-76
2023/08/15 11:52:52;;;;;;;4.28;1.92;;;;;;;;;;5039780;28;20017;-76
2023/08/15 11:55:18;;;;;;;4.35;1.70;;;;;;;;;;5053106;28;20468;-76
2023/08/15 11:57:45;;;;;;;5.45;2.30;;;;;;;;;;5052219;28;20025;-76
2023/08/15 12:00:11;;;;;;;3.70;1.75;;;;;;;;;;5053584;28;20021;-76
2023/08/15 12:02:44;;;;;;;4.50;1.67;;;;;;;;;;5043131;28;20026;-76
2023/08/15 12:05:11;;;;;;;3.95;1.58;;;;;;;;;;5050849;28;20049;-76
2023/08/15 12:07:37;;;;;;;3.33;1.60;;;;;;;;;;5053438;28;20029;-76
2023/08/15 12:10:03;;;;;;;2.03;1.10;;;;;;;;;;5053581;28;20083;-76
2023/08/15 12:12:29;;;;;;;3.75;1.55;;;;;;;;;;5044006;28;20480;-76
2023/08/15 12:14:56;;;;;;;2.92;1.30;;;;;;;;;;5049343;28;20096;-76
2023/08/15 12:17:22;;;;;;;5.03;1.23;;;;;;;;;;5053504;28;20036;-76
2023/08/15 12:19:48;;;;;;;4.10;1.20;;;;;;;;;;5053493;28;20029;-76
2023/08/15 12:22:14;;;;;;;2.67;1.20;;;;;;;;;;5053035;28;20033;-77
2023/08/15 12:24:40;;;;;;;4.57;1.58;;;;;;;;;;5038137;28;20476;-76
2023/08/15 12:27:06;;;;;;;2.15;1.15;;;;;;;;;;5032823;28;20083;-76
2023/08/15 12:29:33;;;;;;;5.32;1.40;;;;;;;;;;5046138;28;20021;-76
2023/08/15 12:31:59;;;;;;;3.58;1.20;;;;;;;;;;5051582;28;20417;-76
2023/08/15 12:34:25;;;;;;;2.05;0.93;;;;;;;;;;5052768;28;20574;-76
2023/08/15 12:36:51;;;;;;;2.17;1.08;;;;;;;;;;5052850;28;20044;-76
2023/08/15 12:39:18;;;;;;;2.70;1.00;;;;;;;;;;5052773;28;20029;-76
2023/08/15 12:41:44;;;;;;;3.78;1.02;;;;;;;;;;5052987;28;20024;-76
2023/08/15 12:44:10;;;;;;;2.22;0.80;;;;;;;;;;5052886;28;20052;-76
2023/08/15 12:46:36;;;;;;;4.38;0.90;;;;;;;;;;5052540;28;20036;-76
2023/08/15 12:49:02;;;;;;;2.80;0.80;;;;;;;;;;5052625;28;20032;-76
2023/08/15 12:51:28;;;;;;;2.25;0.80;;;;;;;;;;5052659;28;20468;-76
2023/08/15 12:53:54;;;;;;;2.65;0.73;;;;;;;;;;5052576;28;20064;-76
2023/08/15 12:56:20;;;;;;;3.05;0.90;;;;;;;;;;5052614;28;20056;-76
2023/08/15 12:58:46;;;;;;;2.40;0.90;;;;;;;;;;5052526;28;20037;-76
2023/08/15 13:01:12;;;;;;;3.08;0.80;;;;;;;;;;5052512;28;20024;-76
2023/08/15 13:03:38;;;;;;;3.58;0.88;;;;;;;;;;5052278;28;20108;-76
2023/08/15 13:06:04;;;;;;;3.30;1.30;;;;;;;;;;5051071;28;20107;-76
2023/08/15 13:08:30;;;;;;;1.10;0.88;;;;;;;;;;5041285;28;20357;-75
2023/08/15 13:10:56;;;;;;;2.60;0.93;;;;;;;;;;5045410;28;20055;-75
2023/08/15 13:13:23;;;;;;;1.70;1.00;;;;;;;;;;5052624;28;20051;-76
2023/08/15 13:15:50;;;;;;;2.40;0.80;;;;;;;;;;5051999;28;20028;-76
2023/08/15 13:18:16;;;;;;;3.78;1.00;;;;;;;;;;5038970;28;20032;-76
2023/08/15 13:20:42;;;;;;;1.75;0.85;;;;;;;;;;5052065;28;20025;-76
2023/08/15 13:23:08;;;;;;;6.22;1.00;;;;;;;;;;5051206;28;20062;-76
2023/08/15 13:25:34;;;;;;;3.00;1.10;;;;;;;;;;5051591;28;20032;-76
2023/08/15 13:28:00;;;;;;;2.80;0.90;;;;;;;;;;5051011;28;20029;-76
2023/08/15 13:30:27;;;;;;;2.10;0.90;;;;;;;;;;5051250;28;20460;-76
2023/08/15 13:32:53;;;;;;;2.47;1.02;;;;;;;;;;5050976;28;20396;-75
2023/08/15 13:35:19;;;;;;;1.40;0.90;;;;;;;;;;5051463;28;20154;-76
2023/08/15 13:37:45;;;;;;;3.47;0.88;;;;;;;;;;5051450;28;20029;-75
2023/08/15 13:40:11;;;;;;;2.25;0.70;;;;;;;;;;5052015;28;20036;-76
2023/08/15 13:42:39;;;;;;;1.35;0.60;;;;;;;;;;5052000;28;20029;-76
2023/08/15 13:45:05;;;;;;;1.83;0.50;;;;;;;;;;5051899;28;20021;-76
2023/08/15 13:47:31;;;;;;;3.85;0.82;;;;;;;;;;5052028;28;20033;-76
2023/08/15 13:49:57;;;;;;;4.72;1.10;;;;;;;;;;5051904;28;20029;-76
2023/08/15 13:52:23;;;;;;;2.60;0.82;;;;;;;;;;5051877;28;20450;-76
2023/08/15 13:54:49;;;;;;;0.85;0.50;;;;;;;;;;5042792;28;20435;-76
2023/08/15 13:57:15;;;;;;;4.57;0.80;;;;;;;;;;5031833;28;20036;-76
2023/08/15 13:59:41;;;;;;;2.00;0.93;;;;;;;;;;5032006;28;20071;-76
2023/08/15 14:02:07;;;;;;;2.35;0.90;;;;;;;;;;5033995;28;20025;-76
2023/08/15 14:04:33;;;;;;;1.85;0.80;;;;;;;;;;5052072;28;20025;-75
2023/08/15 14:06:59;;;;;;;1.27;0.70;;;;;;;;;;5051744;28;20040;-76
2023/08/15 14:09:25;;;;;;;1.55;0.65;;;;;;;;;;5051804;28;20032;-76
2023/08/15 14:11:51;;;;;;;1.38;0.50;;;;;;;;;;5038254;28;20017;-76
2023/08/15 14:14:17;;;;;;;5.65;0.63;;;;;;;;;;5051543;28;20387;-76
2023/08/15 14:16:43;;;;;;;2.95;0.70;;;;;;;;;;5032713;28;20034;-76
2023/08/15 14:19:12;;;;;;;1.33;0.57;;;;;;;;;;5035193;28;20029;-76
2023/08/15 14:21:38;;;;;;;1.08;0.60;;;;;;;;;;5035642;28;20029;-76
2023/08/15 14:24:05;;;;;;;1.38;0.73;;;;;;;;;;5035561;28;20030;-76
2023/08/15 14:26:30;;;;;;;0.98;0.57;;;;;;;;;;5050715;28;20124;-76
2023/08/15 14:28:56;;;;;;;1.08;0.60;;;;;;;;;;5035290;28;20164;-76
2023/08/15 14:31:22;;;;;;;1.83;0.90;;;;;;;;;;5035392;28;20028;-76
2023/08/15 14:33:48;;;;;;;1.63;0.90;;;;;;;;;;5034960;28;20053;-75